Bookmark and Share
Track history (hours):
 

Captain Ed

More information available from US FCC via Universal Licensing System and Coast Guard Vessel Documentation Center.

Last reported at 2014-Apr-24 05:07 UTC. Time now 2014-Apr-24 09:20 UTC.
Position N 36°52' W 076°19'.

Length 21 m; draft 3 m.

Type: Tug. MMSI: 367473210.

NotesDate/timePositionNaut miles runAvg speedWind from/ knotsBaromVisibWave heightAir tempDewpointWater temp
2014-Apr-24 05:07N 36°52' W 076°19'1 0.0
2014-Apr-22 01:32N 36°53' W 076°20'5 0.4
2014-Apr-21 13:17N 36°58' W 076°21'4 5.1
2014-Apr-21 12:33N 36°54' W 076°21'4 3.8
2014-Apr-21 11:33N 36°57' W 076°23'2 1.9
2014-Apr-21 10:19N 36°58' W 076°25'0 0.0
2014-Apr-21 09:33N 36°58' W 076°25'0 0.0
2014-Apr-21 03:17N 36°58' W 076°25'0 0.0
2014-Apr-21 02:29N 36°58' W 076°25'0 0.0
2014-Apr-21 01:32N 36°58' W 076°25'0 0.0
2014-Apr-21 00:28N 36°58' W 076°25'0 0.0
2014-Apr-20 23:24N 36°58' W 076°25'0 0.0
2014-Apr-20 22:28N 36°58' W 076°25'0 0.0
2014-Apr-20 20:28N 36°58' W 076°25'0 0.0
2014-Apr-20 17:32N 36°58' W 076°25'0 0.0
2014-Apr-20 16:24N 36°58' W 076°25'0 0.0
2014-Apr-20 14:14N 36°58' W 076°25'0 0.0
2014-Apr-20 13:29N 36°58' W 076°25'5 0.2
2014-Apr-19 07:26N 36°55' W 076°20'0 0.1
2014-Apr-18 22:08N 36°54' W 076°20'3 5.8
2014-Apr-18 21:33N 36°58' W 076°21'4 4.1
2014-Apr-18 20:33N 36°57' W 076°26'6 1.4
2014-Apr-18 16:25N 36°54' W 076°20'3 2.9
2014-Apr-18 15:32N 36°51' W 076°19'0 0.1
2014-Apr-18 13:22N 36°52' W 076°19'  
2014-Apr-14 17:33N 36°49' W 076°17'1 1.1
2014-Apr-14 16:30N 36°50' W 076°18'4 2.0
2014-Apr-14 14:30N 36°46' W 076°18'  

Dump ship's entire track history

sailing weather and tide predictions

Captain Ed — WDF6338 — position and weather